sensor_id;sensor_type;location;lat;lon;timestamp;pressure;altitude;pressure_sealevel;temperature
19568;BMP280;9930;49.240;8.548;2024-02-26T00:00:00;98559.47;;;12.60
19568;BMP280;9930;49.240;8.548;2024-02-26T00:02:26;98550.94;;;12.52
19568;BMP280;9930;49.240;8.548;2024-02-26T00:04:52;98562.03;;;12.54
19568;BMP280;9930;49.240;8.548;2024-02-26T00:07:18;98558.59;;;12.51
19568;BMP280;9930;49.240;8.548;2024-02-26T00:09:43;98585.03;;;12.59
19568;BMP280;9930;49.240;8.548;2024-02-26T00:12:09;98596.97;;;12.61
19568;BMP280;9930;49.240;8.548;2024-02-26T00:14:35;98589.28;;;12.60
19568;BMP280;9930;49.240;8.548;2024-02-26T00:17:01;98585.03;;;12.56
19568;BMP280;9930;49.240;8.548;2024-02-26T00:19:26;98594.41;;;12.64
19568;BMP280;9930;49.240;8.548;2024-02-26T00:21:52;98581.63;;;12.58
19568;BMP280;9930;49.240;8.548;2024-02-26T00:24:20;98596.13;;;12.62
19568;BMP280;9930;49.240;8.548;2024-02-26T00:26:46;98598.66;;;12.65
19568;BMP280;9930;49.240;8.548;2024-02-26T00:29:12;98585.88;;;12.59
19568;BMP280;9930;49.240;8.548;2024-02-26T00:31:37;98597.81;;;12.60
19568;BMP280;9930;49.240;8.548;2024-02-26T00:34:03;98597.81;;;12.65
19568;BMP280;9930;49.240;8.548;2024-02-26T00:36:34;98585.88;;;12.58
19568;BMP280;9930;49.240;8.548;2024-02-26T00:39:00;98589.28;;;12.58
19568;BMP280;9930;49.240;8.548;2024-02-26T00:41:25;98588.44;;;12.61
19568;BMP280;9930;49.240;8.548;2024-02-26T00:43:51;98591.84;;;12.63
19568;BMP280;9930;49.240;8.548;2024-02-26T00:46:16;98594.41;;;12.63
19568;BMP280;9930;49.240;8.548;2024-02-26T00:48:42;98594.41;;;12.63
19568;BMP280;9930;49.240;8.548;2024-02-26T00:51:08;98579.06;;;12.54
19568;BMP280;9930;49.240;8.548;2024-02-26T00:53:34;98594.41;;;12.60
19568;BMP280;9930;49.240;8.548;2024-02-26T00:56:00;98590.16;;;12.62
19568;BMP280;9930;49.240;8.548;2024-02-26T00:58:26;98591.00;;;12.56
19568;BMP280;9930;49.240;8.548;2024-02-26T01:00:52;98605.50;;;12.62
19568;BMP280;9930;49.240;8.548;2024-02-26T01:03:18;98591.84;;;12.54
19568;BMP280;9930;49.240;8.548;2024-02-26T01:05:45;98592.69;;;12.53
19568;BMP280;9930;49.240;8.548;2024-02-26T01:08:11;98612.31;;;12.60
19568;BMP280;9930;49.240;8.548;2024-02-26T01:10:36;98608.03;;;12.53
19568;BMP280;9930;49.240;8.548;2024-02-26T01:13:02;98622.53;;;12.60
19568;BMP280;9930;49.240;8.548;2024-02-26T01:15:28;98614.00;;;12.52
19568;BMP280;9930;49.240;8.548;2024-02-26T01:17:54;98622.53;;;12.52
19568;BMP280;9930;49.240;8.548;2024-02-26T01:20:21;98625.94;;;12.59
19568;BMP280;9930;49.240;8.548;2024-02-26T01:22:47;98619.13;;;12.53
19568;BMP280;9930;49.240;8.548;2024-02-26T01:25:13;98637.03;;;12.58
19568;BMP280;9930;49.240;8.548;2024-02-26T01:27:39;98618.25;;;12.50
19568;BMP280;9930;49.240;8.548;2024-02-26T01:30:07;98631.06;;;12.54
19568;BMP280;9930;49.240;8.548;2024-02-26T01:32:33;98617.41;;;12.51
19568;BMP280;9930;49.240;8.548;2024-02-26T01:34:59;98619.97;;;12.52
19568;BMP280;9930;49.240;8.548;2024-02-26T01:37:25;98623.38;;;12.53
19568;BMP280;9930;49.240;8.548;2024-02-26T01:39:51;98631.06;;;12.54
19568;BMP280;9930;49.240;8.548;2024-02-26T01:42:16;98622.53;;;12.49
19568;BMP280;9930;49.240;8.548;2024-02-26T01:44:44;98631.06;;;12.54
19568;BMP280;9930;49.240;8.548;2024-02-26T01:47:13;98627.66;;;12.54
19568;BMP280;9930;49.240;8.548;2024-02-26T01:49:40;98619.97;;;12.54
19568;BMP280;9930;49.240;8.548;2024-02-26T01:52:08;98625.09;;;12.54
19568;BMP280;9930;49.240;8.548;2024-02-26T01:54:38;98625.06;;;12.49
19568;BMP280;9930;49.240;8.548;2024-02-26T01:57:07;98627.63;;;12.49
19568;BMP280;9930;49.240;8.548;2024-02-26T01:59:34;98628.50;;;12.50
19568;BMP280;9930;49.240;8.548;2024-02-26T02:02:03;98619.13;;;12.47
19568;BMP280;9930;49.240;8.548;2024-02-26T02:04:31;98618.25;;;12.45
19568;BMP280;9930;49.240;8.548;2024-02-26T02:06:59;98635.31;;;12.52
19568;BMP280;9930;49.240;8.548;2024-02-26T02:09:27;98636.16;;;12.47
19568;BMP280;9930;49.240;8.548;2024-02-26T02:11:54;98637.00;;;12.47
19568;BMP280;9930;49.240;8.548;2024-02-26T02:14:20;98630.19;;;12.48
19568;BMP280;9930;49.240;8.548;2024-02-26T02:16:47;98645.53;;;12.54
19568;BMP280;9930;49.240;8.548;2024-02-26T02:19:13;98640.41;;;12.52
19568;BMP280;9930;49.240;8.548;2024-02-26T02:21:39;98653.22;;;12.54
19568;BMP280;9930;49.240;8.548;2024-02-26T02:24:05;98658.31;;;12.52
19568;BMP280;9930;49.240;8.548;2024-02-26T02:26:31;98645.53;;;12.45
19568;BMP280;9930;49.240;8.548;2024-02-26T02:29:00;98637.84;;;12.43
19568;BMP280;9930;49.240;8.548;2024-02-26T02:31:26;98639.56;;;12.44
19568;BMP280;9930;49.240;8.548;2024-02-26T02:33:53;98637.00;;;12.44
19568;BMP280;9930;49.240;8.548;2024-02-26T02:36:18;98648.09;;;12.49
19568;BMP280;9930;49.240;8.548;2024-02-26T02:38:51;98643.81;;;12.48
19568;BMP280;9930;49.240;8.548;2024-02-26T02:41:18;98629.31;;;12.41
19568;BMP280;9930;49.240;8.548;2024-02-26T02:43:44;98630.19;;;12.40
19568;BMP280;9930;49.240;8.548;2024-02-26T02:46:10;98631.03;;;12.41
19568;BMP280;9930;49.240;8.548;2024-02-26T02:48:38;98644.66;;;12.43
19568;BMP280;9930;49.240;8.548;2024-02-26T02:51:05;98644.66;;;12.41
19568;BMP280;9930;49.240;8.548;2024-02-26T02:53:31;98651.47;;;12.42
19568;BMP280;9930;49.240;8.548;2024-02-26T02:55:56;98641.25;;;12.35
19568;BMP280;9930;49.240;8.548;2024-02-26T02:58:22;98643.81;;;12.35
19568;BMP280;9930;49.240;8.548;2024-02-26T03:00:48;98650.63;;;12.40
19568;BMP280;9930;49.240;8.548;2024-02-26T03:03:13;98649.78;;;12.40
19568;BMP280;9930;49.240;8.548;2024-02-26T03:05:39;98640.38;;;12.34
19568;BMP280;9930;49.240;8.548;2024-02-26T03:08:05;98646.38;;;12.39
19568;BMP280;9930;49.240;8.548;2024-02-26T03:10:30;98654.03;;;12.41
19568;BMP280;9930;49.240;8.548;2024-02-26T03:12:56;98662.56;;;12.43
19568;BMP280;9930;49.240;8.548;2024-02-26T03:15:22;98658.28;;;12.36
19568;BMP280;9930;49.240;8.548;2024-02-26T03:17:48;98648.06;;;12.32
19568;BMP280;9930;49.240;8.548;2024-02-26T03:20:14;98656.59;;;12.38
19568;BMP280;9930;49.240;8.548;2024-02-26T03:22:40;98644.66;;;12.32
19568;BMP280;9930;49.240;8.548;2024-02-26T03:25:06;98648.91;;;12.38
19568;BMP280;9930;49.240;8.548;2024-02-26T03:27:32;98639.53;;;12.37
19568;BMP280;9930;49.240;8.548;2024-02-26T03:29:58;98627.59;;;12.32
19568;BMP280;9930;49.240;8.548;2024-02-26T03:32:24;98635.28;;;12.37
19568;BMP280;9930;49.240;8.548;2024-02-26T03:34:50;98627.63;;;12.36
19568;BMP280;9930;49.240;8.548;2024-02-26T03:37:19;98624.19;;;12.33
19568;BMP280;9930;49.240;8.548;2024-02-26T03:39:45;98616.53;;;12.26
19568;BMP280;9930;49.240;8.548;2024-02-26T03:42:11;98617.38;;;12.29
19568;BMP280;9930;49.240;8.548;2024-02-26T03:44:36;98613.09;;;12.24
19568;BMP280;9930;49.240;8.548;2024-02-26T03:47:02;98615.66;;;12.22
19568;BMP280;9930;49.240;8.548;2024-02-26T03:49:28;98611.41;;;12.20
19568;BMP280;9930;49.240;8.548;2024-02-26T03:51:54;98615.66;;;12.21
19568;BMP280;9930;49.240;8.548;2024-02-26T03:54:20;98610.53;;;12.21
19568;BMP280;9930;49.240;8.548;2024-02-26T03:56:46;98603.72;;;12.18
19568;BMP280;9930;49.240;8.548;2024-02-26T03:59:11;98593.50;;;12.12
19568;BMP280;9930;49.240;8.548;2024-02-26T04:01:37;98612.25;;;12.23
19568;BMP280;9930;49.240;8.548;2024-02-26T04:04:05;98603.72;;;12.20
19568;BMP280;9930;49.240;8.548;2024-02-26T04:06:31;98600.31;;;12.19
19568;BMP280;9930;49.240;8.548;2024-02-26T04:08:57;98592.66;;;12.13
19568;BMP280;9930;49.240;8.548;2024-02-26T04:11:23;98581.56;;;12.11
19568;BMP280;9930;49.240;8.548;2024-02-26T04:13:49;98592.66;;;12.16
19568;BMP280;9930;49.240;8.548;2024-02-26T04:16:17;98574.75;;;12.09
19568;BMP280;9930;49.240;8.548;2024-02-26T04:18:43;98584.13;;;12.14
19568;BMP280;9930;49.240;8.548;2024-02-26T04:21:09;98575.59;;;12.11
19568;BMP280;9930;49.240;8.548;2024-02-26T04:23:35;98576.47;;;12.10
19568;BMP280;9930;49.240;8.548;2024-02-26T04:26:00;98578.16;;;12.06
19568;BMP280;9930;49.240;8.548;2024-02-26T04:28:26;98566.22;;;12.00
19568;BMP280;9930;49.240;8.548;2024-02-26T04:30:55;98567.91;;;12.00
19568;BMP280;9930;49.240;8.548;2024-02-26T04:33:23;98581.56;;;12.07
19568;BMP280;9930;49.240;8.548;2024-02-26T04:35:49;98573.88;;;12.00
19568;BMP280;9930;49.240;8.548;2024-02-26T04:38:14;98567.06;;;11.99
19568;BMP280;9930;49.240;8.548;2024-02-26T04:40:40;98576.44;;;12.07
19568;BMP280;9930;49.240;8.548;2024-02-26T04:43:06;98562.81;;;12.00
19568;BMP280;9930;49.240;8.548;2024-02-26T04:45:32;98580.69;;;12.05
19568;BMP280;9930;49.240;8.548;2024-02-26T04:47:57;98566.22;;;11.99
19568;BMP280;9930;49.240;8.548;2024-02-26T04:50:23;98579.00;;;12.00
19568;BMP280;9930;49.240;8.548;2024-02-26T04:52:49;98583.25;;;12.05
19568;BMP280;9930;49.240;8.548;2024-02-26T04:55:14;98587.50;;;12.04
19568;BMP280;9930;49.240;8.548;2024-02-26T04:57:40;98582.41;;;11.99
19568;BMP280;9930;49.240;8.548;2024-02-26T05:00:06;98582.38;;;11.98
19568;BMP280;9930;49.240;8.548;2024-02-26T05:02:32;98590.06;;;11.99
19568;BMP280;9930;49.240;8.548;2024-02-26T05:05:01;98597.72;;;12.04
19568;BMP280;9930;49.240;8.548;2024-02-26T05:07:27;98600.28;;;12.04
19568;BMP280;9930;49.240;8.548;2024-02-26T05:09:53;98590.06;;;12.01
19568;BMP280;9930;49.240;8.548;2024-02-26T05:12:19;98596.88;;;12.04
19568;BMP280;9930;49.240;8.548;2024-02-26T05:14:45;98586.66;;;12.00
19568;BMP280;9930;49.240;8.548;2024-02-26T05:17:10;98590.06;;;12.03
19568;BMP280;9930;49.240;8.548;2024-02-26T05:19:36;98591.75;;;11.97
19568;BMP280;9930;49.240;8.548;2024-02-26T05:22:04;98602.00;;;12.04
19568;BMP280;9930;49.240;8.548;2024-02-26T05:24:30;98597.72;;;11.99
19568;BMP280;9930;49.240;8.548;2024-02-26T05:26:56;98602.81;;;11.98
19568;BMP280;9930;49.240;8.548;2024-02-26T05:29:22;98618.16;;;12.04
19568;BMP280;9930;49.240;8.548;2024-02-26T05:31:47;98611.34;;;11.97
19568;BMP280;9930;49.240;8.548;2024-02-26T05:34:13;98605.38;;;11.96
19568;BMP280;9930;49.240;8.548;2024-02-26T05:36:39;98620.72;;;12.04
19568;BMP280;9930;49.240;8.548;2024-02-26T05:39:04;98617.31;;;12.00
19568;BMP280;9930;49.240;8.548;2024-02-26T05:41:30;98638.63;;;12.06
19568;BMP280;9930;49.240;8.548;2024-02-26T05:43:56;98635.22;;;12.05
19568;BMP280;9930;49.240;8.548;2024-02-26T05:46:22;98642.00;;;12.05
19568;BMP280;9930;49.240;8.548;2024-02-26T05:48:51;98637.75;;;12.04
19568;BMP280;9930;49.240;8.548;2024-02-26T05:51:18;98632.63;;;11.99
19568;BMP280;9930;49.240;8.548;2024-02-26T05:53:43;98649.66;;;12.00
19568;BMP280;9930;49.240;8.548;2024-02-26T05:56:12;98647.97;;;12.00
19568;BMP280;9930;49.240;8.548;2024-02-26T05:58:38;98646.25;;;11.99
19568;BMP280;9930;49.240;8.548;2024-02-26T06:01:03;98660.75;;;12.05
19568;BMP280;9930;49.240;8.548;2024-02-26T06:03:29;98656.47;;;11.98
19568;BMP280;9930;49.240;8.548;2024-02-26T06:05:55;98676.06;;;12.04
19568;BMP280;9930;49.240;8.548;2024-02-26T06:08:21;98672.66;;;12.03
19568;BMP280;9930;49.240;8.548;2024-02-26T06:10:46;98673.50;;;12.02
19568;BMP280;9930;49.240;8.548;2024-02-26T06:13:12;98681.16;;;12.00
19568;BMP280;9930;49.240;8.548;2024-02-26T06:15:38;98686.28;;;11.97
19568;BMP280;9930;49.240;8.548;2024-02-26T06:18:04;98681.16;;;11.97
19568;BMP280;9930;49.240;8.548;2024-02-26T06:20:29;98661.53;;;11.84
19568;BMP280;9930;49.240;8.548;2024-02-26T06:22:55;98692.19;;;11.90
19568;BMP280;9930;49.240;8.548;2024-02-26T06:25:21;98688.75;;;11.85
19568;BMP280;9930;49.240;8.548;2024-02-26T06:27:46;98689.63;;;11.84
19568;BMP280;9930;49.240;8.548;2024-02-26T06:30:12;98694.75;;;11.87
19568;BMP280;9930;49.240;8.548;2024-02-26T06:32:38;98694.72;;;11.84
19568;BMP280;9930;49.240;8.548;2024-02-26T06:35:05;98704.09;;;11.88
19568;BMP280;9930;49.240;8.548;2024-02-26T06:37:33;98716.03;;;11.89
19568;BMP280;9930;49.240;8.548;2024-02-26T06:40:00;98699.81;;;11.84
19568;BMP280;9930;49.240;8.548;2024-02-26T06:42:25;98699.81;;;11.83
19568;BMP280;9930;49.240;8.548;2024-02-26T06:44:51;98704.09;;;11.88
19568;BMP280;9930;49.240;8.548;2024-02-26T06:47:17;98714.34;;;11.90
19568;BMP280;9930;49.240;8.548;2024-02-26T06:49:43;98713.50;;;11.92
19568;BMP280;9930;49.240;8.548;2024-02-26T06:52:09;98720.31;;;11.93
19568;BMP280;9930;49.240;8.548;2024-02-26T06:54:35;98721.16;;;11.95
19568;BMP280;9930;49.240;8.548;2024-02-26T06:57:00;98719.47;;;11.96
19568;BMP280;9930;49.240;8.548;2024-02-26T06:59:26;98722.03;;;11.96
19568;BMP280;9930;49.240;8.548;2024-02-26T07:01:53;98723.75;;;12.00
19568;BMP280;9930;49.240;8.548;2024-02-26T07:04:20;98721.16;;;11.94
19568;BMP280;9930;49.240;8.548;2024-02-26T07:06:45;98732.28;;;12.02
19568;BMP280;9930;49.240;8.548;2024-02-26T07:09:12;98722.88;;;11.96
19568;BMP280;9930;49.240;8.548;2024-02-26T07:11:38;98724.59;;;11.97
19568;BMP280;9930;49.240;8.548;2024-02-26T07:14:08;98718.63;;;11.95
19568;BMP280;9930;49.240;8.548;2024-02-26T07:16:34;98723.75;;;11.98
19568;BMP280;9930;49.240;8.548;2024-02-26T07:19:00;98739.13;;;12.08
19568;BMP280;9930;49.240;8.548;2024-02-26T07:21:25;98730.59;;;12.09
19568;BMP280;9930;49.240;8.548;2024-02-26T07:23:52;98733.16;;;12.07
19568;BMP280;9930;49.240;8.548;2024-02-26T07:26:17;98739.13;;;12.14
19568;BMP280;9930;49.240;8.548;2024-02-26T07:28:45;98737.44;;;12.13
19568;BMP280;9930;49.240;8.548;2024-02-26T07:31:10;98738.31;;;12.19
19568;BMP280;9930;49.240;8.548;2024-02-26T07:33:36;98745.13;;;12.22
19568;BMP280;9930;49.240;8.548;2024-02-26T07:36:02;98744.28;;;12.24
19568;BMP280;9930;49.240;8.548;2024-02-26T07:38:28;98727.25;;;12.19
19568;BMP280;9930;49.240;8.548;2024-02-26T07:40:54;98726.38;;;12.20
19568;BMP280;9930;49.240;8.548;2024-02-26T07:43:20;98739.19;;;12.27
19568;BMP280;9930;49.240;8.548;2024-02-26T07:45:45;98727.25;;;12.20
19568;BMP280;9930;49.240;8.548;2024-02-26T07:48:11;98745.16;;;12.26
19568;BMP280;9930;49.240;8.548;2024-02-26T07:50:39;98742.59;;;12.28
19568;BMP280;9930;49.240;8.548;2024-02-26T07:53:06;98727.25;;;12.19
19568;BMP280;9930;49.240;8.548;2024-02-26T07:55:31;98735.75;;;12.21
19568;BMP280;9930;49.240;8.548;2024-02-26T07:57:57;98731.50;;;12.23
19568;BMP280;9930;49.240;8.548;2024-02-26T08:00:23;98734.09;;;12.29
19568;BMP280;9930;49.240;8.548;2024-02-26T08:02:49;98749.44;;;12.35
19568;BMP280;9930;49.240;8.548;2024-02-26T08:05:15;98741.78;;;12.32
19568;BMP280;9930;49.240;8.548;2024-02-26T08:07:40;98746.06;;;12.42
19568;BMP280;9930;49.240;8.548;2024-02-26T08:10:07;98737.53;;;12.39
19568;BMP280;9930;49.240;8.548;2024-02-26T08:12:33;98751.19;;;12.44
19568;BMP280;9930;49.240;8.548;2024-02-26T08:14:59;98735.84;;;12.39
19568;BMP280;9930;49.240;8.548;2024-02-26T08:17:25;98755.47;;;12.51
19568;BMP280;9930;49.240;8.548;2024-02-26T08:19:52;98758.03;;;12.55
19568;BMP280;9930;49.240;8.548;2024-02-26T08:22:18;98752.06;;;12.53
19568;BMP280;9930;49.240;8.548;2024-02-26T08:24:44;98746.97;;;12.58
19568;BMP280;9930;49.240;8.548;2024-02-26T08:27:10;98748.69;;;12.59
19568;BMP280;9930;49.240;8.548;2024-02-26T08:29:36;98761.50;;;12.70
19568;BMP280;9930;49.240;8.548;2024-02-26T08:32:02;98752.97;;;12.64
19568;BMP280;9930;49.240;8.548;2024-02-26T08:34:28;98747.00;;;12.67
19568;BMP280;9930;49.240;8.548;2024-02-26T08:36:54;98745.28;;;12.69
19568;BMP280;9930;49.240;8.548;2024-02-26T08:39:19;98741.88;;;12.69
19568;BMP280;9930;49.240;8.548;2024-02-26T08:41:46;98750.41;;;12.75
19568;BMP280;9930;49.240;8.548;2024-02-26T08:44:12;98744.44;;;12.70
19568;BMP280;9930;49.240;8.548;2024-02-26T08:46:37;98747.00;;;12.69
19568;BMP280;9930;49.240;8.548;2024-02-26T08:49:04;98768.34;;;12.83
19568;BMP280;9930;49.240;8.548;2024-02-26T08:51:29;98779.44;;;12.86
19568;BMP280;9930;49.240;8.548;2024-02-26T08:53:56;98775.19;;;12.91
19568;BMP280;9930;49.240;8.548;2024-02-26T08:56:21;98772.63;;;12.94
19568;BMP280;9930;49.240;8.548;2024-02-26T08:58:47;98777.78;;;13.05
19568;BMP280;9930;49.240;8.548;2024-02-26T09:01:19;98779.47;;;13.12
19568;BMP280;9930;49.240;8.548;2024-02-26T09:03:45;98782.94;;;13.19
19568;BMP280;9930;49.240;8.548;2024-02-26T09:06:11;98782.94;;;13.25
19568;BMP280;9930;49.240;8.548;2024-02-26T09:08:39;98783.78;;;13.27
19568;BMP280;9930;49.240;8.548;2024-02-26T09:11:05;98778.69;;;13.28
19568;BMP280;9930;49.240;8.548;2024-02-26T09:13:30;98780.38;;;13.29
19568;BMP280;9930;49.240;8.548;2024-02-26T09:15:56;98776.97;;;13.27
19568;BMP280;9930;49.240;8.548;2024-02-26T09:18:22;98780.38;;;13.29
19568;BMP280;9930;49.240;8.548;2024-02-26T09:20:47;98769.28;;;13.32
19568;BMP280;9930;49.240;8.548;2024-02-26T09:23:13;98776.97;;;13.37
19568;BMP280;9930;49.240;8.548;2024-02-26T09:25:39;98792.34;;;13.47
19568;BMP280;9930;49.240;8.548;2024-02-26T09:28:07;98794.03;;;13.53
19568;BMP280;9930;49.240;8.548;2024-02-26T09:30:33;98779.53;;;13.52
19568;BMP280;9930;49.240;8.548;2024-02-26T09:32:59;98782.94;;;13.57
19568;BMP280;9930;49.240;8.548;2024-02-26T09:35:24;98791.47;;;13.68
19568;BMP280;9930;49.240;8.548;2024-02-26T09:37:51;98797.44;;;13.72
19568;BMP280;9930;49.240;8.548;2024-02-26T09:40:17;98787.22;;;13.66
19568;BMP280;9930;49.240;8.548;2024-02-26T09:42:45;98804.28;;;13.70
19568;BMP280;9930;49.240;8.548;2024-02-26T09:45:22;98800.84;;;13.71
19568;BMP280;9930;49.240;8.548;2024-02-26T09:47:50;98796.59;;;13.79
19568;BMP280;9930;49.240;8.548;2024-02-26T09:50:17;98783.78;;;13.82
19568;BMP280;9930;49.240;8.548;2024-02-26T09:52:43;98782.91;;;13.90
19568;BMP280;9930;49.240;8.548;2024-02-26T09:55:10;98789.72;;;13.93
19568;BMP280;9930;49.240;8.548;2024-02-26T09:57:45;98799.97;;;13.98
19568;BMP280;9930;49.240;8.548;2024-02-26T10:00:18;98805.09;;;14.05
19568;BMP280;9930;49.240;8.548;2024-02-26T10:02:47;98801.66;;;14.11
19568;BMP280;9930;49.240;8.548;2024-02-26T10:05:17;98805.88;;;14.22
19568;BMP280;9930;49.240;8.548;2024-02-26T10:07:45;98793.09;;;14.18
19568;BMP280;9930;49.240;8.548;2024-02-26T10:10:11;98805.84;;;14.33
19568;BMP280;9930;49.240;8.548;2024-02-26T10:12:38;98800.72;;;14.33
19568;BMP280;9930;49.240;8.548;2024-02-26T10:15:03;98809.28;;;14.31
19568;BMP280;9930;49.240;8.548;2024-02-26T10:17:29;98801.63;;;14.24
19568;BMP280;9930;49.240;8.548;2024-02-26T10:20:17;98805.88;;;14.30
19568;BMP280;9930;49.240;8.548;2024-02-26T10:22:46;98804.16;;;14.29
19568;BMP280;9930;49.240;8.548;2024-02-26T10:25:12;98813.53;;;14.36
19568;BMP280;9930;49.240;8.548;2024-02-26T10:27:38;98787.94;;;14.25
19568;BMP280;9930;49.240;8.548;2024-02-26T10:30:18;98816.94;;;14.41
19568;BMP280;9930;49.240;8.548;2024-02-26T10:32:45;98810.97;;;14.38
19568;BMP280;9930;49.240;8.548;2024-02-26T10:35:16;98819.53;;;14.47
19568;BMP280;9930;49.240;8.548;2024-02-26T10:37:43;98822.09;;;14.47
19568;BMP280;9930;49.240;8.548;2024-02-26T10:40:14;98827.19;;;14.53
19568;BMP280;9930;49.240;8.548;2024-02-26T10:42:41;98814.41;;;14.47
19568;BMP280;9930;49.240;8.548;2024-02-26T10:45:09;98816.91;;;14.56
19568;BMP280;9930;49.240;8.548;2024-02-26T10:47:36;98830.56;;;14.65
19568;BMP280;9930;49.240;8.548;2024-02-26T10:50:04;98811.75;;;14.63
19568;BMP280;9930;49.240;8.548;2024-02-26T10:52:36;98818.59;;;14.68
19568;BMP280;9930;49.240;8.548;2024-02-26T10:55:04;98833.06;;;14.83
19568;BMP280;9930;49.240;8.548;2024-02-26T10:57:52;98834.72;;;14.92
19568;BMP280;9930;49.240;8.548;2024-02-26T11:00:18;98838.09;;;14.98
19568;BMP280;9930;49.240;8.548;2024-02-26T11:02:45;98840.66;;;15.00
19568;BMP280;9930;49.240;8.548;2024-02-26T11:05:13;98839.81;;;15.02
19568;BMP280;9930;49.240;8.548;2024-02-26T11:07:41;98835.50;;;15.07
19568;BMP280;9930;49.240;8.548;2024-02-26T11:10:11;98852.53;;;15.19
19568;BMP280;9930;49.240;8.548;2024-02-26T11:12:39;98846.50;;;15.26
19568;BMP280;9930;49.240;8.548;2024-02-26T11:15:06;98835.38;;;15.26
19568;BMP280;9930;49.240;8.548;2024-02-26T11:17:33;98840.41;;;15.39
19568;BMP280;9930;49.240;8.548;2024-02-26T11:20:00;98844.59;;;15.54
19568;BMP280;9930;49.240;8.548;2024-02-26T11:22:28;98831.75;;;15.59
19568;BMP280;9930;49.240;8.548;2024-02-26T11:24:55;98833.38;;;15.66
19568;BMP280;9930;49.240;8.548;2024-02-26T11:27:37;98840.97;;;15.78
19568;BMP280;9930;49.240;8.548;2024-02-26T11:30:09;98841.81;;;15.80
19568;BMP280;9930;49.240;8.548;2024-02-26T11:32:36;98846.06;;;15.85
19568;BMP280;9930;49.240;8.548;2024-02-26T11:35:05;98832.38;;;15.80
19568;BMP280;9930;49.240;8.548;2024-02-26T11:37:32;98833.19;;;15.87
19568;BMP280;9930;49.240;8.548;2024-02-26T11:40:01;98839.91;;;16.02
19568;BMP280;9930;49.240;8.548;2024-02-26T11:42:27;98832.22;;;15.99
19568;BMP280;9930;49.240;8.548;2024-02-26T11:44:55;98835.56;;;16.08
19568;BMP280;9930;49.240;8.548;2024-02-26T11:47:27;98836.31;;;16.18
19568;BMP280;9930;49.240;8.548;2024-02-26T11:49:53;98820.84;;;16.21
19568;BMP280;9930;49.240;8.548;2024-02-26T11:52:19;98816.53;;;16.25
19568;BMP280;9930;49.240;8.548;2024-02-26T11:54:56;98819.81;;;16.39
19568;BMP280;9930;49.240;8.548;2024-02-26T12:00:13;98826.56;;;16.47
19568;BMP280;9930;49.240;8.548;2024-02-26T12:05:17;98843.56;;;16.59
19568;BMP280;9930;49.240;8.548;2024-02-26T12:08:05;98836.72;;;16.60
19568;BMP280;9930;49.240;8.548;2024-02-26T12:10:41;98841.81;;;16.67
19568;BMP280;9930;49.240;8.548;2024-02-26T12:13:14;98854.47;;;16.82
19568;BMP280;9930;49.240;8.548;2024-02-26T12:15:42;98849.25;;;16.89
19568;BMP280;9930;49.240;8.548;2024-02-26T12:18:17;98856.00;;;16.97
19568;BMP280;9930;49.240;8.548;2024-02-26T12:20:43;98855.06;;;17.03
19568;BMP280;9930;49.240;8.548;2024-02-26T12:23:16;98860.13;;;17.09
19568;BMP280;9930;49.240;8.548;2024-02-26T12:25:45;98854.13;;;17.08
19568;BMP280;9930;49.240;8.548;2024-02-26T12:28:14;98858.31;;;17.17
19568;BMP280;9930;49.240;8.548;2024-02-26T12:30:40;98860.88;;;17.19
19568;BMP280;9930;49.240;8.548;2024-02-26T12:33:06;98849.66;;;17.23
19568;BMP280;9930;49.240;8.548;2024-02-26T12:35:35;98853.88;;;17.27
19568;BMP280;9930;49.240;8.548;2024-02-26T12:38:01;98840.22;;;17.22
19568;BMP280;9930;49.240;8.548;2024-02-26T12:40:29;98847.84;;;17.29
19568;BMP280;9930;49.240;8.548;2024-02-26T12:42:55;98844.50;;;17.21
19568;BMP280;9930;49.240;8.548;2024-02-26T12:45:21;98857.38;;;17.23
19568;BMP280;9930;49.240;8.548;2024-02-26T12:47:47;98848.03;;;17.15
19568;BMP280;9930;49.240;8.548;2024-02-26T12:50:13;98860.84;;;17.20
19568;BMP280;9930;49.240;8.548;2024-02-26T12:52:44;98864.28;;;17.19
19568;BMP280;9930;49.240;8.548;2024-02-26T12:55:15;98853.19;;;17.15
19568;BMP280;9930;49.240;8.548;2024-02-26T12:57:43;98855.66;;;17.22
19568;BMP280;9930;49.240;8.548;2024-02-26T13:00:15;98857.38;;;17.23
19568;BMP280;9930;49.240;8.548;2024-02-26T13:02:41;98855.66;;;17.23
19568;BMP280;9930;49.240;8.548;2024-02-26T13:05:13;98861.78;;;17.14
19568;BMP280;9930;49.240;8.548;2024-02-26T13:07:43;98851.53;;;17.10
19568;BMP280;9930;49.240;8.548;2024-02-26T13:10:10;98858.41;;;17.09
19568;BMP280;9930;49.240;8.548;2024-02-26T13:12:48;98854.25;;;17.01
19568;BMP280;9930;49.240;8.548;2024-02-26T13:15:18;98865.34;;;17.06
19568;BMP280;9930;49.240;8.548;2024-02-26T13:17:45;98874.78;;;17.05
19568;BMP280;9930;49.240;8.548;2024-02-26T13:20:11;98872.16;;;17.08
19568;BMP280;9930;49.240;8.548;2024-02-26T13:22:38;98861.00;;;17.09
19568;BMP280;9930;49.240;8.548;2024-02-26T13:25:04;98870.38;;;17.13
19568;BMP280;9930;49.240;8.548;2024-02-26T13:27:33;98887.38;;;17.27
19568;BMP280;9930;49.240;8.548;2024-02-26T13:30:09;98884.75;;;17.30
19568;BMP280;9930;49.240;8.548;2024-02-26T13:32:40;98876.22;;;17.26
19568;BMP280;9930;49.240;8.548;2024-02-26T13:35:11;98882.25;;;17.25
19568;BMP280;9930;49.240;8.548;2024-02-26T13:37:39;98883.09;;;17.26
19568;BMP280;9930;49.240;8.548;2024-02-26T13:40:06;98889.00;;;17.32
19568;BMP280;9930;49.240;8.548;2024-02-26T13:42:32;98878.81;;;17.25
19568;BMP280;9930;49.240;8.548;2024-02-26T13:44:58;98877.97;;;17.24
19568;BMP280;9930;49.240;8.548;2024-02-26T13:47:24;98891.59;;;17.31
19568;BMP280;9930;49.240;8.548;2024-02-26T13:49:50;98874.56;;;17.21
19568;BMP280;9930;49.240;8.548;2024-02-26T13:52:16;98887.41;;;17.25
19568;BMP280;9930;49.240;8.548;2024-02-26T13:54:41;98887.47;;;17.21
19568;BMP280;9930;49.240;8.548;2024-02-26T13:57:07;98891.78;;;17.19
19568;BMP280;9930;49.240;8.548;2024-02-26T13:59:34;98884.16;;;17.09
19568;BMP280;9930;49.240;8.548;2024-02-26T14:02:00;98888.44;;;17.12
19568;BMP280;9930;49.240;8.548;2024-02-26T14:04:25;98901.22;;;17.20
19568;BMP280;9930;49.240;8.548;2024-02-26T14:06:51;98893.47;;;17.20
19568;BMP280;9930;49.240;8.548;2024-02-26T14:09:17;98901.97;;;17.28
19568;BMP280;9930;49.240;8.548;2024-02-26T14:11:45;98901.03;;;17.32
19568;BMP280;9930;49.240;8.548;2024-02-26T14:14:11;98891.56;;;17.34
19568;BMP280;9930;49.240;8.548;2024-02-26T14:16:36;98906.06;;;17.42
19568;BMP280;9930;49.240;8.548;2024-02-26T14:19:02;98887.19;;;17.39
19568;BMP280;9930;49.240;8.548;2024-02-26T14:21:29;98893.09;;;17.47
19568;BMP280;9930;49.240;8.548;2024-02-26T14:23:57;98887.94;;;17.47